Time;durP1;ratioP1;P1;durP2;ratioP2;P2;SDS_P1;SDS_P2;PMS_P1;PMS_P2;Temp;Humidity;BMP_temperature;BMP_pressure;BME280_temperature;BME280_humidity;BME280_pressure;Samples;Min_cycle;Max_cycle;Signal;HPM_P1;HPM_P2
2022/08/09 00:01:29;;;;;;;10.20;3.53;;;16.60;99.90;;;;;;5092790;28;20040;-67
2022/08/09 00:03:55;;;;;;;9.82;3.55;;;16.60;99.90;;;;;;5092766;28;20104;-68
2022/08/09 00:06:21;;;;;;;8.55;3.97;;;16.60;99.90;;;;;;5092913;28;20103;-70
2022/08/09 00:08:49;;;;;;;6.50;2.75;;;16.60;99.90;;;;;;5093170;28;20089;-71
2022/08/09 00:11:16;;;;;;;9.32;3.40;;;16.60;99.90;;;;;;5091417;28;20415;-68
2022/08/09 00:13:43;;;;;;;9.30;3.50;;;16.60;99.90;;;;;;5092395;28;20486;-69
2022/08/09 00:16:08;;;;;;;5.13;3.00;;;16.50;99.90;;;;;;5092580;28;20028;-68
2022/08/09 00:18:35;;;;;;;5.65;3.20;;;16.50;99.90;;;;;;5092414;28;20511;-67
2022/08/09 00:21:03;;;;;;;5.30;3.40;;;16.50;99.90;;;;;;5092765;28;20047;-68
2022/08/09 00:23:28;;;;;;;9.27;3.47;;;16.50;99.90;;;;;;5092710;28;20092;-68
2022/08/09 00:25:54;;;;;;;11.18;3.80;;;16.50;99.90;;;;;;5095919;28;20415;-67
2022/08/09 00:28:22;;;;;;;10.25;3.67;;;16.50;99.90;;;;;;5095692;28;20020;-69
2022/08/09 00:30:48;;;;;;;6.32;3.40;;;16.50;99.90;;;;;;5096324;28;20038;-68
2022/08/09 00:33:13;;;;;;;7.55;3.50;;;16.50;99.90;;;;;;5095704;28;20081;-68
2022/08/09 00:35:39;;;;;;;7.22;3.45;;;16.50;99.90;;;;;;5095914;28;20032;-72
2022/08/09 00:38:05;;;;;;;8.95;3.83;;;16.40;99.90;;;;;;5095801;28;20089;-68
2022/08/09 00:40:30;;;;;;;6.63;3.83;;;16.40;99.90;;;;;;5096342;28;20020;-68
2022/08/09 00:42:56;;;;;;;10.15;4.03;;;16.50;99.90;;;;;;5095856;28;20111;-70
2022/08/09 00:45:21;;;;;;;6.75;3.60;;;16.50;99.90;;;;;;5094892;28;20020;-66
2022/08/09 00:47:47;;;;;;;9.93;4.13;;;16.40;99.90;;;;;;5094512;28;20024;-68
2022/08/09 00:50:13;;;;;;;11.43;4.20;;;16.40;99.90;;;;;;5095852;28;20016;-72
2022/08/09 00:52:38;;;;;;;9.25;4.40;;;16.40;99.90;;;;;;5095860;28;20028;-71
2022/08/09 00:55:04;;;;;;;5.57;3.95;;;16.30;99.90;;;;;;5095921;28;20026;-67
2022/08/09 00:57:30;;;;;;;9.88;4.20;;;16.30;99.90;;;;;;5095660;28;20040;-67
2022/08/09 00:59:56;;;;;;;8.77;4.32;;;16.30;99.90;;;;;;5095538;28;20365;-70
2022/08/09 01:02:27;;;;;;;12.00;4.78;;;16.30;99.90;;;;;;5095750;28;20076;-70
2022/08/09 01:05:06;;;;;;;7.65;4.70;;;16.30;99.90;;;;;;5095863;28;20020;-72
2022/08/09 01:07:58;;;;;;;9.25;4.10;;;16.30;99.90;;;;;;5094065;28;20028;-67
2022/08/09 01:10:44;;;;;;;7.30;4.00;;;16.30;99.90;;;;;;5094309;28;20056;-70
2022/08/09 01:13:45;;;;;;;11.30;4.50;;;16.30;99.90;;;;;;5094277;28;20024;-68
2022/08/09 01:16:24;;;;;;;8.98;4.65;;;16.20;99.90;;;;;;5095545;28;20055;-68
2022/08/09 01:22:29;;;;;;;11.82;5.03;;;16.20;99.90;;;;;;5094860;28;20039;-68
2022/08/09 01:25:18;;;;;;;11.35;5.10;;;16.20;99.90;;;;;;5087477;28;20064;-67
2022/08/09 01:27:55;;;;;;;11.07;4.95;;;16.10;99.90;;;;;;5094357;28;20028;-68
2022/08/09 01:30:36;;;;;;;10.63;4.93;;;16.10;99.90;;;;;;5093542;28;20032;-67
2022/08/09 01:36:05;;;;;;;11.27;4.68;;;16.10;99.90;;;;;;5079904;28;20129;-67
2022/08/09 01:38:36;;;;;;;13.15;5.40;;;16.10;99.90;;;;;;5096462;28;20024;-67
2022/08/09 01:41:08;;;;;;;8.68;4.88;;;16.10;99.90;;;;;;5094087;28;20055;-68
2022/08/09 01:43:36;;;;;;;10.13;4.70;;;16.10;99.90;;;;;;5091461;28;20112;-69
2022/08/09 01:46:02;;;;;;;11.68;4.55;;;16.10;99.90;;;;;;5093531;28;20028;-68
2022/08/09 01:48:30;;;;;;;11.48;4.85;;;16.10;99.90;;;;;;5093625;28;20020;-68
2022/08/09 01:50:58;;;;;;;14.07;5.05;;;16.10;99.90;;;;;;5093812;28;20043;-70
2022/08/09 01:53:25;;;;;;;10.82;4.95;;;16.10;99.90;;;;;;5093436;28;20072;-72
2022/08/09 01:55:52;;;;;;;9.95;5.10;;;16.10;99.90;;;;;;5090954;28;20097;-69
2022/08/09 01:58:19;;;;;;;12.65;5.07;;;16.10;99.90;;;;;;5093541;28;20047;-68
2022/08/09 02:00:45;;;;;;;11.95;5.25;;;16.00;99.90;;;;;;5093382;28;20016;-68
2022/08/09 02:03:14;;;;;;;11.93;5.05;;;16.00;99.90;;;;;;5089801;28;20085;-71
2022/08/09 02:05:43;;;;;;;13.68;5.75;;;16.00;99.90;;;;;;5092927;28;20453;-70
2022/08/09 02:08:12;;;;;;;10.18;5.15;;;16.00;99.90;;;;;;5093147;28;20360;-68
2022/08/09 02:10:41;;;;;;;12.40;5.32;;;16.00;99.90;;;;;;5093341;28;20024;-69
2022/08/09 02:13:09;;;;;;;12.30;4.93;;;16.00;99.90;;;;;;5092829;28;20028;-71
2022/08/09 02:15:42;;;;;;;15.13;6.28;;;16.00;99.90;;;;;;5093155;28;20043;-71
2022/08/09 02:18:09;;;;;;;10.45;6.07;;;15.90;99.90;;;;;;5093307;28;20020;-71
2022/08/09 02:20:39;;;;;;;14.13;5.38;;;15.90;99.90;;;;;;5093091;28;20024;-68
2022/08/09 02:23:22;;;;;;;14.57;5.30;;;15.90;99.90;;;;;;5092796;28;20077;-68
2022/08/09 02:25:51;;;;;;;12.98;6.32;;;15.80;99.90;;;;;;5092703;28;20028;-67
2022/08/09 02:28:22;;;;;;;16.65;6.22;;;15.80;99.90;;;;;;5092844;28;20024;-68
2022/08/09 02:30:53;;;;;;;13.10;6.10;;;15.80;99.90;;;;;;5092791;28;20039;-68
2022/08/09 02:33:25;;;;;;;12.10;5.80;;;15.80;99.90;;;;;;5092497;28;20020;-69
2022/08/09 02:35:57;;;;;;;13.65;6.55;;;15.80;99.90;;;;;;5092601;28;20091;-70
2022/08/09 02:38:27;;;;;;;16.48;6.75;;;15.80;99.90;;;;;;5091346;28;20107;-70
2022/08/09 02:40:56;;;;;;;13.80;6.32;;;15.70;99.90;;;;;;5089908;28;20531;-67
2022/08/09 02:43:24;;;;;;;14.13;6.45;;;15.70;99.90;;;;;;5091755;28;20044;-66
2022/08/09 02:45:51;;;;;;;11.30;6.10;;;15.70;99.90;;;;;;5092324;28;20466;-70
2022/08/09 02:48:19;;;;;;;12.63;6.25;;;15.70;99.90;;;;;;5091690;28;20160;-72
2022/08/09 02:50:49;;;;;;;12.52;5.82;;;15.70;99.90;;;;;;5092256;28;20376;-67
2022/08/09 02:53:25;;;;;;;14.07;6.35;;;15.70;99.90;;;;;;5092361;28;20468;-65
2022/08/09 02:55:52;;;;;;;13.25;6.00;;;15.70;99.90;;;;;;5090810;28;20499;-69
2022/08/09 02:58:21;;;;;;;15.23;6.57;;;15.70;99.90;;;;;;5091908;28;20047;-67
2022/08/09 03:00:48;;;;;;;14.75;6.32;;;15.60;99.90;;;;;;5091948;28;20377;-68
2022/08/09 03:03:16;;;;;;;15.82;6.30;;;15.60;99.90;;;;;;5092384;28;20031;-68
2022/08/09 03:05:43;;;;;;;12.68;6.05;;;15.60;99.90;;;;;;5092028;28;20116;-67
2022/08/09 03:08:11;;;;;;;15.65;6.47;;;15.50;99.90;;;;;;5092050;28;20044;-66
2022/08/09 03:10:38;;;;;;;16.23;6.60;;;15.50;99.90;;;;;;5092341;28;20020;-67
2022/08/09 03:13:05;;;;;;;14.25;5.80;;;15.50;99.90;;;;;;5089194;28;20012;-68
2022/08/09 03:15:31;;;;;;;15.50;6.80;;;15.50;99.90;;;;;;5091582;28;20027;-69
2022/08/09 03:17:58;;;;;;;14.75;7.05;;;15.40;99.90;;;;;;5092020;28;20023;-68
2022/08/09 03:20:24;;;;;;;15.32;6.68;;;15.40;99.90;;;;;;5089279;28;20016;-71
2022/08/09 03:22:50;;;;;;;18.45;7.00;;;15.40;99.90;;;;;;5091773;28;20455;-68
2022/08/09 03:25:16;;;;;;;17.30;7.50;;;15.40;99.90;;;;;;5091582;28;20099;-68
2022/08/09 03:27:43;;;;;;;19.42;6.75;;;15.40;99.90;;;;;;5091616;28;20340;-67
2022/08/09 03:30:10;;;;;;;15.60;6.90;;;15.40;99.90;;;;;;5091777;28;20033;-71
2022/08/09 03:32:37;;;;;;;16.13;6.75;;;15.40;99.90;;;;;;5091785;28;20020;-67
2022/08/09 03:35:03;;;;;;;15.77;6.82;;;15.40;99.90;;;;;;5088828;28;20012;-70
2022/08/09 03:37:29;;;;;;;17.23;7.03;;;15.40;99.90;;;;;;5090143;28;20031;-68
2022/08/09 03:39:54;;;;;;;16.98;6.72;;;15.40;99.90;;;;;;5090452;28;20028;-71
2022/08/09 03:42:20;;;;;;;15.82;7.78;;;15.40;99.90;;;;;;5092325;28;20031;-68
2022/08/09 03:44:45;;;;;;;14.90;6.70;;;15.40;99.90;;;;;;5092899;28;20024;-69
2022/08/09 03:47:11;;;;;;;16.52;6.97;;;15.30;99.90;;;;;;5091956;28;20032;-68
2022/08/09 03:49:39;;;;;;;16.08;7.40;;;15.40;99.90;;;;;;5090832;28;20409;-68
2022/08/09 03:52:07;;;;;;;17.40;7.40;;;15.30;99.90;;;;;;5093044;28;20440;-68
2022/08/09 03:54:38;;;;;;;18.70;7.90;;;15.30;99.90;;;;;;5092552;28;20157;-68
2022/08/09 03:57:08;;;;;;;17.13;7.13;;;15.30;99.90;;;;;;5092612;28;20019;-68
2022/08/09 03:59:34;;;;;;;15.10;7.10;;;15.30;99.90;;;;;;5094023;28;20028;-68
2022/08/09 04:02:00;;;;;;;18.92;7.80;;;15.30;99.90;;;;;;5096707;28;20028;-66
2022/08/09 04:04:27;;;;;;;19.02;7.60;;;15.30;99.90;;;;;;5096647;28;20023;-71
2022/08/09 04:06:52;;;;;;;14.75;7.47;;;15.30;99.90;;;;;;5096961;28;20086;-68
2022/08/09 04:09:18;;;;;;;14.68;6.88;;;15.30;99.90;;;;;;5096645;28;20441;-68
2022/08/09 04:12:16;;;;;;;15.27;7.30;;;15.30;99.90;;;;;;5096822;28;20453;-69
2022/08/09 04:14:42;;;;;;;18.40;7.82;;;15.30;99.90;;;;;;5080119;28;20032;-68
2022/08/09 04:17:07;;;;;;;19.83;8.07;;;15.20;99.90;;;;;;5096665;28;20137;-68
2022/08/09 04:19:33;;;;;;;18.77;7.90;;;15.20;99.90;;;;;;5096290;28;20103;-68
2022/08/09 04:21:59;;;;;;;17.73;7.85;;;15.20;99.90;;;;;;5096389;28;20038;-67
2022/08/09 04:24:25;;;;;;;17.77;7.50;;;15.20;99.90;;;;;;5096282;28;20020;-68
2022/08/09 04:26:51;;;;;;;16.75;8.13;;;15.20;99.90;;;;;;5094973;28;20078;-68
2022/08/09 04:29:17;;;;;;;17.55;7.93;;;15.20;99.90;;;;;;5096508;28;20103;-70
2022/08/09 04:31:42;;;;;;;19.10;7.47;;;15.20;99.90;;;;;;5096461;28;20110;-67
2022/08/09 04:34:08;;;;;;;17.70;8.35;;;15.20;99.90;;;;;;5095745;28;20417;-69
2022/08/09 04:36:34;;;;;;;20.42;9.40;;;15.20;99.90;;;;;;5095928;28;20024;-68
2022/08/09 04:39:04;;;;;;;17.95;8.02;;;15.20;99.90;;;;;;5096179;28;20035;-67
2022/08/09 04:41:30;;;;;;;21.60;9.15;;;15.20;99.90;;;;;;5095796;28;20043;-67
2022/08/09 04:43:56;;;;;;;18.90;7.55;;;15.30;99.90;;;;;;5095937;28;20016;-66
2022/08/09 04:46:22;;;;;;;21.00;7.65;;;15.30;99.90;;;;;;5095885;28;20355;-67
2022/08/09 04:48:48;;;;;;;19.05;7.75;;;15.30;99.90;;;;;;5095695;28;20024;-67
2022/08/09 04:51:13;;;;;;;16.52;7.40;;;15.40;99.90;;;;;;5096012;28;20442;-67
2022/08/09 04:53:39;;;;;;;18.27;7.82;;;15.40;99.90;;;;;;5097441;28;20128;-66
2022/08/09 04:56:05;;;;;;;21.73;8.40;;;15.40;99.90;;;;;;5096885;28;20107;-67
2022/08/09 04:58:31;;;;;;;20.05;8.18;;;15.40;99.90;;;;;;5095865;28;20040;-67
2022/08/09 05:00:57;;;;;;;17.60;8.13;;;15.40;99.90;;;;;;5096175;28;20032;-67
2022/08/09 05:03:23;;;;;;;20.15;8.70;;;15.50;99.90;;;;;;5095865;28;20028;-68
2022/08/09 05:05:49;;;;;;;19.80;8.52;;;15.50;99.90;;;;;;5096046;28;20031;-68
2022/08/09 05:08:15;;;;;;;19.95;8.82;;;15.60;99.90;;;;;;5095524;28;20028;-67
2022/08/09 05:10:40;;;;;;;19.90;8.48;;;15.60;99.90;;;;;;5095347;28;20012;-70
2022/08/09 05:13:06;;;;;;;17.33;8.35;;;15.60;99.90;;;;;;5095911;28;20020;-70
2022/08/09 05:15:32;;;;;;;19.88;8.60;;;15.70;99.90;;;;;;5096030;28;20016;-67
2022/08/09 05:17:57;;;;;;;19.15;8.60;;;15.70;99.90;;;;;;5094309;28;20387;-68
2022/08/09 05:20:24;;;;;;;18.48;8.40;;;15.80;99.90;;;;;;5095251;28;20446;-67
2022/08/09 05:22:52;;;;;;;18.00;8.00;;;15.80;99.90;;;;;;5095663;28;20028;-69
2022/08/09 05:25:21;;;;;;;20.80;8.80;;;15.90;99.90;;;;;;5095532;28;20072;-72
2022/08/09 05:27:47;;;;;;;20.90;8.13;;;16.00;99.90;;;;;;5095541;28;20118;-69
2022/08/09 05:30:13;;;;;;;19.63;8.18;;;16.00;99.90;;;;;;5095452;28;20095;-66
2022/08/09 05:32:39;;;;;;;21.85;9.00;;;16.10;99.90;;;;;;5095309;28;20031;-66
2022/08/09 05:35:05;;;;;;;18.88;9.23;;;16.20;99.90;;;;;;5095468;28;20020;-67
2022/08/09 05:37:31;;;;;;;19.90;8.45;;;16.30;99.90;;;;;;5095434;28;20050;-66
2022/08/09 05:39:57;;;;;;;21.95;9.23;;;16.40;99.90;;;;;;5095442;28;20450;-67
2022/08/09 05:42:23;;;;;;;18.75;8.75;;;16.50;99.90;;;;;;5095033;28;20105;-67
2022/08/09 05:44:50;;;;;;;16.42;7.93;;;16.60;99.90;;;;;;5094632;28;20071;-67
2022/08/09 05:47:16;;;;;;;20.45;8.38;;;16.70;99.90;;;;;;5093649;28;20027;-67
2022/08/09 05:49:42;;;;;;;17.52;8.10;;;16.80;99.90;;;;;;5095032;28;20026;-67
2022/08/09 05:52:08;;;;;;;18.60;7.57;;;16.90;99.90;;;;;;5094996;28;20036;-66
2022/08/09 05:54:34;;;;;;;18.13;7.85;;;17.00;99.90;;;;;;5094936;28;20326;-67
2022/08/09 05:57:00;;;;;;;17.83;7.40;;;17.20;99.90;;;;;;5094729;28;20024;-69
2022/08/09 05:59:26;;;;;;;16.10;7.22;;;17.30;99.90;;;;;;5093139;28;20068;-72
2022/08/09 06:01:51;;;;;;;18.85;7.70;;;17.40;99.90;;;;;;5094906;28;20068;-67
2022/08/09 06:04:17;;;;;;;16.90;7.00;;;17.50;99.90;;;;;;5095015;28;20020;-71
2022/08/09 06:06:43;;;;;;;16.02;7.35;;;17.60;99.90;;;;;;5094840;28;20039;-67
2022/08/09 06:09:08;;;;;;;17.13;7.65;;;17.80;99.90;;;;;;5094654;28;20026;-71
2022/08/09 06:11:34;;;;;;;13.00;6.82;;;18.00;99.90;;;;;;5094787;28;20047;-70
2022/08/09 06:13:59;;;;;;;16.35;7.00;;;18.10;99.90;;;;;;5094593;28;20020;-71
2022/08/09 06:16:25;;;;;;;12.65;5.55;;;18.30;99.90;;;;;;5094961;28;20047;-66
2022/08/09 06:18:50;;;;;;;16.48;6.95;;;18.50;99.90;;;;;;5094529;28;20016;-67
2022/08/09 06:21:16;;;;;;;13.40;6.35;;;18.70;99.90;;;;;;5094443;28;20430;-66
2022/08/09 06:23:41;;;;;;;13.60;6.47;;;18.90;99.90;;;;;;5093888;28;20101;-68
2022/08/09 06:26:07;;;;;;;19.10;7.70;;;19.20;99.90;;;;;;5094643;28;20035;-68
2022/08/09 06:28:32;;;;;;;18.05;6.22;;;19.50;99.90;;;;;;5093918;28;20099;-66
2022/08/09 06:30:58;;;;;;;28.33;7.20;;;20.00;99.90;;;;;;5094410;28;20347;-67
2022/08/09 06:33:24;;;;;;;15.82;6.00;;;20.60;99.90;;;;;;5072498;28;20453;-68
2022/08/09 06:35:49;;;;;;;14.93;5.43;;;21.20;99.90;;;;;;5092080;28;20024;-67
2022/08/09 06:38:15;;;;;;;17.30;5.57;;;22.00;99.90;;;;;;5094014;28;20024;-71
2022/08/09 06:40:41;;;;;;;9.60;4.57;;;22.70;99.90;;;;;;5094024;28;20069;-72
2022/08/09 06:43:07;;;;;;;8.38;4.15;;;23.50;99.90;;;;;;5093996;28;20048;-66
2022/08/09 06:45:32;;;;;;;12.55;5.22;;;24.40;99.90;;;;;;5094053;28;20016;-67
2022/08/09 06:47:58;;;;;;;14.57;4.43;;;25.10;99.90;;;;;;5094239;28;20067;-67
2022/08/09 06:50:23;;;;;;;13.30;4.47;;;25.70;99.90;;;;;;5093686;28;20115;-67
2022/08/09 06:52:49;;;;;;;10.00;5.53;;;26.20;99.90;;;;;;5094073;28;20012;-67
2022/08/09 06:55:18;;;;;;;14.38;4.72;;;26.70;99.20;;;;;;5093566;28;20024;-68
2022/08/09 06:57:43;;;;;;;8.57;4.13;;;27.20;98.20;;;;;;5093510;28;20040;-67
2022/08/09 07:00:10;;;;;;;8.05;3.70;;;27.50;96.90;;;;;;5093135;28;20031;-71
2022/08/09 07:02:35;;;;;;;9.63;3.83;;;27.80;96.70;;;;;;5093855;28;20085;-67
2022/08/09 07:05:01;;;;;;;6.55;3.15;;;28.20;96.10;;;;;;5093756;28;20028;-67
2022/08/09 07:07:27;;;;;;;8.93;3.00;;;28.40;95.00;;;;;;5092753;28;20024;-69
2022/08/09 07:09:53;;;;;;;7.43;3.45;;;28.30;94.80;;;;;;5093957;28;20095;-70
2022/08/09 07:12:19;;;;;;;5.80;3.53;;;28.00;95.10;;;;;;5093597;28;20482;-67
2022/08/09 07:14:45;;;;;;;8.75;3.47;;;27.80;95.50;;;;;;5092350;28;20024;-66
2022/08/09 07:17:11;;;;;;;6.65;3.22;;;27.80;95.10;;;;;;5093604;28;20020;-70
2022/08/09 07:19:37;;;;;;;13.73;4.30;;;27.30;95.80;;;;;;5092136;28;20369;-67
2022/08/09 07:22:02;;;;;;;8.82;3.78;;;27.20;95.80;;;;;;5093251;28;20078;-67
2022/08/09 07:24:32;;;;;;;5.65;3.80;;;26.70;96.50;;;;;;5092737;28;20513;-71
2022/08/09 07:26:58;;;;;;;7.05;3.38;;;26.50;96.90;;;;;;5079616;28;20016;-68
2022/08/09 07:29:24;;;;;;;7.32;3.72;;;26.20;97.30;;;;;;5082516;28;20103;-69
2022/08/09 07:31:50;;;;;;;8.23;3.90;;;25.80;97.90;;;;;;5092922;28;20423;-66
2022/08/09 07:34:16;;;;;;;7.32;3.72;;;25.40;98.10;;;;;;5093329;28;20024;-67
2022/08/09 07:36:41;;;;;;;5.05;2.72;;;25.10;98.80;;;;;;5093114;28;20068;-68
2022/08/09 07:39:07;;;;;;;4.90;2.38;;;24.90;99.20;;;;;;5093081;28;20031;-66
2022/08/09 07:41:32;;;;;;;5.05;2.00;;;24.70;99.30;;;;;;5092546;28;20351;-67
2022/08/09 07:43:58;;;;;;;8.38;2.10;;;24.60;99.00;;;;;;5093340;28;20081;-66
2022/08/09 07:46:24;;;;;;;5.28;2.40;;;24.30;98.80;;;;;;5093070;28;20028;-66
2022/08/09 07:48:50;;;;;;;4.20;2.42;;;24.10;99.40;;;;;;5093122;28;20044;-71
2022/08/09 07:51:16;;;;;;;6.80;2.25;;;24.00;99.90;;;;;;5093074;28;20039;-69
2022/08/09 07:53:42;;;;;;;6.05;2.80;;;24.10;99.60;;;;;;5092329;28;20020;-67
2022/08/09 07:56:08;;;;;;;6.28;2.50;;;24.00;99.90;;;;;;5092600;28;20485;-68
2022/08/09 07:58:33;;;;;;;5.72;2.22;;;23.90;99.90;;;;;;5092348;28;20044;-66
2022/08/09 08:00:59;;;;;;;4.47;2.13;;;24.10;99.30;;;;;;5092749;28;20095;-69
2022/08/09 08:03:25;;;;;;;5.43;2.17;;;24.30;99.00;;;;;;5092785;28;20028;-70
2022/08/09 08:05:51;;;;;;;7.15;2.15;;;24.70;98.80;;;;;;5093105;28;20090;-69
2022/08/09 08:08:17;;;;;;;7.03;2.28;;;25.30;97.90;;;;;;5093174;28;20112;-65
2022/08/09 08:10:42;;;;;;;6.15;1.88;;;26.00;97.30;;;;;;5080512;28;20107;-67
2022/08/09 08:13:08;;;;;;;3.03;1.83;;;26.50;96.10;;;;;;5087061;28;20081;-69
2022/08/09 08:15:34;;;;;;;3.67;1.63;;;27.00;95.30;;;;;;5093028;28;20032;-67
2022/08/09 08:17:59;;;;;;;2.60;1.25;;;27.50;94.80;;;;;;5092687;28;20434;-67
2022/08/09 08:20:27;;;;;;;4.72;1.23;;;28.40;93.50;;;;;;5092696;28;20026;-67
2022/08/09 08:22:53;;;;;;;4.47;1.17;;;29.30;91.50;;;;;;5092797;28;20054;-68
2022/08/09 08:25:18;;;;;;;1.20;1.05;;;30.10;90.30;;;;;;5092586;28;20041;-67
2022/08/09 08:27:44;;;;;;;3.47;1.10;;;30.90;87.00;;;;;;5091866;28;20020;-67
2022/08/09 08:30:12;;;;;;;1.73;1.02;;;31.50;84.90;;;;;;5092467;28;20016;-67
2022/08/09 08:32:39;;;;;;;9.02;1.23;;;32.30;83.10;;;;;;5092497;28;20079;-69
2022/08/09 08:35:05;;;;;;;2.75;1.00;;;32.70;81.20;;;;;;5092888;28;20024;-67
2022/08/09 08:37:31;;;;;;;1.65;0.80;;;33.30;79.10;;;;;;5092232;28;20447;-70
2022/08/09 08:39:57;;;;;;;2.95;0.80;;;33.40;77.70;;;;;;5092722;28;20426;-71
2022/08/09 08:42:23;;;;;;;1.55;0.50;;;33.40;77.80;;;;;;5092435;28;20031;-68
2022/08/09 08:44:56;;;;;;;1.13;0.70;;;33.70;75.10;;;;;;5092653;28;20032;-69
2022/08/09 08:47:22;;;;;;;2.85;0.90;;;33.80;74.40;;;;;;5096236;28;20020;-70
2022/08/09 08:49:48;;;;;;;1.88;1.02;;;33.90;73.60;;;;;;5096334;28;20107;-67
2022/08/09 08:52:18;;;;;;;4.72;0.93;;;34.00;73.20;;;;;;5096459;28;20095;-68
2022/08/09 08:54:44;;;;;;;3.37;0.90;;;34.30;71.90;;;;;;5095997;28;20094;-67
2022/08/09 08:57:10;;;;;;;2.85;0.88;;;34.50;71.40;;;;;;5095171;28;20101;-68
2022/08/09 08:59:35;;;;;;;2.53;1.27;;;34.80;71.10;;;;;;5096308;28;20026;-72
2022/08/09 09:02:03;;;;;;;2.53;0.75;;;35.00;70.70;;;;;;5095944;28;20032;-68
2022/08/09 09:04:31;;;;;;;2.22;1.10;;;35.10;69.20;;;;;;5096142;28;20021;-70
2022/08/09 09:07:06;;;;;;;3.05;1.00;;;35.10;68.60;;;;;;5095564;28;20418;-67
2022/08/09 09:09:32;;;;;;;3.50;1.00;;;35.20;68.50;;;;;;5095998;28;20027;-68
2022/08/09 09:11:58;;;;;;;2.75;0.90;;;35.40;67.90;;;;;;5095650;28;20508;-70
2022/08/09 09:14:26;;;;;;;1.98;0.88;;;35.80;67.60;;;;;;5096085;28;20084;-70
2022/08/09 09:16:52;;;;;;;3.65;1.40;;;36.30;66.40;;;;;;5090612;28;20017;-67
2022/08/09 09:19:18;;;;;;;2.65;0.80;;;36.50;65.60;;;;;;5089037;28;20110;-68
2022/08/09 09:22:00;;;;;;;2.75;1.10;;;36.50;65.00;;;;;;5095164;28;20024;-69
2022/08/09 09:24:28;;;;;;;2.35;0.80;;;36.40;65.00;;;;;;5093017;28;20069;-67
2022/08/09 09:26:58;;;;;;;3.63;0.70;;;36.50;64.30;;;;;;5074260;28;20031;-67
2022/08/09 09:29:28;;;;;;;1.60;0.83;;;36.60;63.50;;;;;;5075213;28;20020;-71
2022/08/09 09:31:54;;;;;;;1.90;0.70;;;36.40;63.70;;;;;;5075185;28;20029;-67
2022/08/09 09:34:19;;;;;;;4.30;1.52;;;36.00;62.60;;;;;;5088879;28;20115;-67
2022/08/09 09:36:45;;;;;;;2.75;1.10;;;35.70;63.30;;;;;;5094673;28;20357;-68
2022/08/09 09:39:11;;;;;;;3.90;0.77;;;35.80;63.40;;;;;;5095303;28;20101;-67
2022/08/09 09:41:36;;;;;;;1.02;0.85;;;35.90;63.00;;;;;;5095195;28;20035;-72
2022/08/09 09:44:05;;;;;;;3.05;1.00;;;36.10;62.60;;;;;;5095392;28;20031;-67
2022/08/09 09:46:33;;;;;;;1.13;0.80;;;36.50;61.60;;;;;;5095260;28;20085;-70
2022/08/09 09:49:04;;;;;;;3.67;0.82;;;36.60;60.90;;;;;;5094957;28;20023;-67
2022/08/09 09:51:32;;;;;;;2.63;1.20;;;36.80;60.30;;;;;;5080017;28;20530;-68
2022/08/09 09:54:09;;;;;;;3.05;0.98;;;36.60;61.00;;;;;;5074769;28;20036;-72
2022/08/09 09:56:41;;;;;;;3.08;0.60;;;36.50;61.00;;;;;;5073164;28;20592;-70
2022/08/09 09:59:08;;;;;;;1.77;0.70;;;36.60;60.60;;;;;;5091652;28;20488;-67
2022/08/09 10:01:34;;;;;;;1.27;0.80;;;36.60;61.00;;;;;;5094929;28;20047;-68
2022/08/09 10:04:00;;;;;;;1.50;0.85;;;36.90;59.90;;;;;;5094693;28;20036;-67
2022/08/09 10:06:40;;;;;;;0.85;0.50;;;37.30;59.80;;;;;;5094955;28;20345;-67
2022/08/09 10:09:07;;;;;;;1.77;0.90;;;37.50;58.60;;;;;;5094744;28;20026;-66
2022/08/09 10:11:34;;;;;;;2.00;0.77;;;37.50;58.20;;;;;;5094331;28;20077;-68
2022/08/09 10:14:00;;;;;;;4.40;0.73;;;37.50;58.50;;;;;;5079515;28;20165;-67
2022/08/09 10:16:36;;;;;;;1.35;0.70;;;37.40;58.60;;;;;;5074390;28;20038;-68
2022/08/09 10:19:05;;;;;;;2.42;0.80;;;37.80;57.50;;;;;;5073153;28;20425;-68
2022/08/09 10:21:32;;;;;;;2.65;0.52;;;37.90;57.90;;;;;;5073987;28;20458;-67
2022/08/09 10:24:03;;;;;;;3.42;0.93;;;38.00;56.90;;;;;;5074491;28;20036;-68
2022/08/09 10:26:30;;;;;;;1.77;0.60;;;37.60;57.70;;;;;;5094134;28;20354;-70
2022/08/09 10:28:57;;;;;;;1.33;0.70;;;37.50;56.30;;;;;;5094492;28;20024;-67
2022/08/09 10:31:23;;;;;;;2.45;1.08;;;37.40;56.20;;;;;;5094352;28;20099;-68
2022/08/09 10:33:50;;;;;;;2.03;1.02;;;37.50;56.40;;;;;;5093708;28;20044;-70
2022/08/09 10:36:16;;;;;;;2.03;0.88;;;37.50;56.80;;;;;;5094656;28;20031;-67
2022/08/09 10:38:45;;;;;;;2.05;0.68;;;37.50;56.70;;;;;;5094102;28;20024;-67
2022/08/09 10:41:13;;;;;;;2.05;0.65;;;37.50;56.10;;;;;;5094372;28;20366;-69
2022/08/09 10:43:45;;;;;;;0.60;0.60;;;37.50;56.00;;;;;;5094303;28;20046;-67
2022/08/09 10:46:41;;;;;;;0.77;0.60;;;37.50;53.70;;;;;;5094057;28;20012;-67
2022/08/09 10:49:19;;;;;;;0.63;0.43;;;37.00;54.50;;;;;;5076065;28;20025;-67
2022/08/09 10:52:17;;;;;;;1.00;0.75;;;36.70;53.70;;;;;;5090944;28;20043;-69
2022/08/09 10:54:42;;;;;;;0.88;0.70;;;36.60;54.30;;;;;;5073509;28;20071;-67
2022/08/09 10:57:12;;;;;;;2.08;0.60;;;36.80;54.80;;;;;;5072937;28;20044;-71
2022/08/09 10:59:39;;;;;;;1.90;0.63;;;37.00;54.50;;;;;;5073409;28;20043;-68
2022/08/09 11:02:07;;;;;;;0.60;0.40;;;37.00;54.20;;;;;;5073295;28;20036;-67
2022/08/09 11:04:34;;;;;;;0.65;0.40;;;36.80;53.80;;;;;;5073671;28;20128;-67
2022/08/09 11:07:00;;;;;;;0.40;0.40;;;36.60;53.70;;;;;;5073186;28;20377;-67
2022/08/09 11:09:38;;;;;;;1.05;0.40;;;36.40;54.20;;;;;;5072757;28;20133;-67
2022/08/09 11:12:17;;;;;;;1.23;0.60;;;36.00;55.00;;;;;;5072648;28;20407;-67
2022/08/09 11:14:47;;;;;;;1.13;0.65;;;35.80;55.80;;;;;;5073584;28;20024;-68
2022/08/09 11:17:12;;;;;;;1.45;0.63;;;35.80;56.20;;;;;;5073746;28;20017;-70
2022/08/09 11:19:50;;;;;;;1.38;0.68;;;36.00;56.30;;;;;;5073328;28;20458;-69
2022/08/09 11:22:16;;;;;;;1.02;0.50;;;36.10;55.60;;;;;;5073331;28;20025;-67
2022/08/09 11:25:24;;;;;;;1.77;0.52;;;36.30;55.50;;;;;;5073178;28;20417;-72
2022/08/09 11:27:52;;;;;;;0.88;0.65;;;36.30;55.20;;;;;;5074595;28;20036;-67
2022/08/09 11:30:20;;;;;;;1.75;0.68;;;36.20;55.70;;;;;;5073139;28;20024;-67
2022/08/09 11:33:05;;;;;;;0.55;0.43;;;36.40;55.40;;;;;;5073029;28;20056;-70
2022/08/09 11:35:39;;;;;;;1.85;0.70;;;36.50;55.20;;;;;;5073073;28;20036;-69
2022/08/09 11:38:32;;;;;;;1.92;0.90;;;36.50;55.40;;;;;;5072425;28;20024;-67
2022/08/09 11:41:27;;;;;;;2.85;0.50;;;36.60;54.70;;;;;;5072752;28;20046;-70
2022/08/09 11:43:53;;;;;;;1.77;0.50;;;36.80;54.70;;;;;;5069885;28;20059;-67
2022/08/09 11:46:19;;;;;;;0.98;0.63;;;37.10;54.50;;;;;;5073371;28;20576;-68
2022/08/09 11:48:51;;;;;;;2.20;0.60;;;37.20;54.60;;;;;;5072870;28;20412;-68
2022/08/09 11:51:19;;;;;;;0.85;0.50;;;37.30;54.20;;;;;;5073206;28;20020;-67
2022/08/09 11:53:45;;;;;;;1.67;0.80;;;37.30;55.30;;;;;;5071578;28;20754;-67
2022/08/09 11:56:13;;;;;;;2.90;0.82;;;37.40;54.40;;;;;;5069767;28;20456;-68
2022/08/09 11:58:43;;;;;;;2.60;1.00;;;37.40;54.40;;;;;;5091297;28;20477;-67
2022/08/09 12:01:10;;;;;;;2.50;0.80;;;37.20;54.70;;;;;;5081164;28;20028;-67
2022/08/09 12:03:37;;;;;;;2.63;0.88;;;36.80;54.80;;;;;;5086935;28;20044;-67
2022/08/09 12:06:12;;;;;;;1.70;0.70;;;36.60;55.20;;;;;;5072141;28;20013;-67
2022/08/09 12:08:45;;;;;;;1.25;1.02;;;36.40;55.60;;;;;;5083930;28;20497;-71
2022/08/09 12:11:13;;;;;;;2.05;0.60;;;36.30;55.30;;;;;;5093005;28;20020;-69
2022/08/09 12:13:46;;;;;;;1.30;0.75;;;36.10;55.30;;;;;;5093131;28;20469;-68
2022/08/09 12:16:28;;;;;;;2.25;0.90;;;35.90;56.10;;;;;;5089175;28;20017;-67
2022/08/09 12:18:54;;;;;;;2.72;1.08;;;35.80;56.10;;;;;;5072895;28;20016;-68
2022/08/09 12:21:38;;;;;;;0.82;0.70;;;36.00;55.70;;;;;;5074804;28;20369;-67
2022/08/09 12:24:06;;;;;;;1.40;0.65;;;36.50;55.80;;;;;;5076192;28;20029;-68
2022/08/09 12:26:42;;;;;;;3.00;0.90;;;37.00;55.30;;;;;;5075216;28;20030;-70
2022/08/09 12:29:08;;;;;;;1.75;0.90;;;37.30;54.60;;;;;;5075777;28;20031;-70
2022/08/09 12:31:34;;;;;;;1.33;0.90;;;37.20;54.40;;;;;;5076327;28;20028;-67
2022/08/09 12:33:59;;;;;;;1.35;0.80;;;37.30;54.00;;;;;;5085934;28;20031;-68
2022/08/09 12:36:25;;;;;;;0.60;0.60;;;37.30;53.80;;;;;;5096178;28;20024;-68
2022/08/09 12:38:52;;;;;;;0.65;0.50;;;37.20;54.40;;;;;;5096537;28;20497;-67
2022/08/09 12:41:30;;;;;;;1.80;0.47;;;37.10;54.40;;;;;;5096916;28;20035;-67
2022/08/09 12:43:57;;;;;;;1.38;0.60;;;37.00;54.30;;;;;;5096070;28;20105;-67
2022/08/09 12:46:24;;;;;;;1.15;0.68;;;36.60;54.60;;;;;;5094863;28;20019;-67
2022/08/09 12:48:54;;;;;;;1.27;0.65;;;35.70;55.70;;;;;;5096482;28;20092;-69
2022/08/09 12:51:21;;;;;;;1.45;0.70;;;35.00;56.70;;;;;;5096415;28;20063;-67
2022/08/09 12:53:57;;;;;;;1.17;0.80;;;34.40;57.00;;;;;;5096018;28;20024;-67
2022/08/09 12:56:22;;;;;;;1.33;0.70;;;34.00;57.50;;;;;;5096064;28;20024;-67